Time;durP1;ratioP1;P1;durP2;ratioP2;P2;SDS_P1;SDS_P2;PMS_P1;PMS_P2;Temp;Humidity;BMP_temperature;BMP_pressure;BME280_temperature;BME280_humidity;BME280_pressure;Samples;Min_cycle;Max_cycle;Signal;HPM_P1;HPM_P2
2021/06/02 00:00:36;;;;;;;5.63;3.80;;;14.90;99.90;;;;;;5073181;28;20208;-55
2021/06/02 00:03:04;;;;;;;6.33;3.70;;;14.90;99.90;;;;;;5073173;28;20204;-55
2021/06/02 00:05:31;;;;;;;5.83;3.47;;;15.00;99.90;;;;;;5072957;28;20234;-58
2021/06/02 00:07:59;;;;;;;12.10;4.10;;;14.90;99.90;;;;;;5073255;28;20220;-58
2021/06/02 00:10:26;;;;;;;5.37;3.60;;;14.90;99.90;;;;;;5073134;28;20212;-56
2021/06/02 00:12:54;;;;;;;6.67;3.90;;;14.90;99.90;;;;;;5073085;28;20231;-57
2021/06/02 00:15:20;;;;;;;5.87;3.97;;;14.90;99.90;;;;;;5073088;28;20772;-55
2021/06/02 00:17:47;;;;;;;5.20;3.70;;;14.90;99.90;;;;;;5072970;28;20203;-57
2021/06/02 00:20:14;;;;;;;4.77;3.60;;;14.80;99.90;;;;;;5073090;28;20206;-58
2021/06/02 00:22:40;;;;;;;6.00;3.80;;;14.80;99.90;;;;;;5073025;28;20208;-55
2021/06/02 00:25:09;;;;;;;6.37;3.73;;;14.80;99.90;;;;;;5072918;28;20208;-53
2021/06/02 00:27:37;;;;;;;5.23;3.73;;;14.80;99.90;;;;;;5072033;28;20266;-57
2021/06/02 00:30:06;;;;;;;6.90;4.17;;;14.70;99.90;;;;;;5072523;28;20217;-58
2021/06/02 00:32:33;;;;;;;7.67;4.17;;;14.70;99.90;;;;;;5072563;28;20273;-56
2021/06/02 00:35:01;;;;;;;6.13;4.20;;;14.70;99.90;;;;;;5072709;28;20245;-58
2021/06/02 00:37:28;;;;;;;6.23;3.60;;;14.60;99.90;;;;;;5072882;28;20207;-58
2021/06/02 00:39:56;;;;;;;6.33;4.07;;;14.60;99.90;;;;;;5072625;28;20301;-58
2021/06/02 00:42:25;;;;;;;5.60;3.87;;;14.50;99.90;;;;;;5072673;28;20311;-55
2021/06/02 00:44:51;;;;;;;6.20;3.77;;;14.40;99.90;;;;;;5072351;28;20224;-57
2021/06/02 00:47:18;;;;;;;8.70;4.40;;;14.40;99.90;;;;;;5072650;28;20226;-58
2021/06/02 00:49:46;;;;;;;9.60;4.50;;;14.40;99.90;;;;;;5072480;28;20258;-55
2021/06/02 00:52:13;;;;;;;6.93;4.40;;;14.40;99.90;;;;;;5072256;28;20226;-56
2021/06/02 00:54:39;;;;;;;6.57;4.33;;;14.30;99.90;;;;;;5072255;28;20219;-57
2021/06/02 00:57:11;;;;;;;6.37;3.90;;;14.30;99.90;;;;;;5071989;28;20734;-55
2021/06/02 00:59:43;;;;;;;5.67;4.00;;;14.30;99.90;;;;;;5072094;28;20207;-57
2021/06/02 01:02:11;;;;;;;6.90;4.10;;;14.30;99.90;;;;;;5072227;28;20205;-55
2021/06/02 01:04:38;;;;;;;8.87;4.43;;;14.30;99.90;;;;;;5072255;28;20301;-53
2021/06/02 01:07:07;;;;;;;7.80;4.63;;;14.20;99.90;;;;;;5072112;28;20229;-56
2021/06/02 01:09:35;;;;;;;5.80;4.20;;;14.20;99.90;;;;;;5072139;28;20582;-58
2021/06/02 01:12:02;;;;;;;8.63;4.40;;;14.20;99.90;;;;;;5071559;28;20268;-58
2021/06/02 01:14:30;;;;;;;8.17;4.50;;;14.20;99.90;;;;;;5072127;28;20580;-55
2021/06/02 01:16:58;;;;;;;10.70;4.23;;;14.10;99.90;;;;;;5071798;28;20315;-58
2021/06/02 01:19:24;;;;;;;5.97;4.20;;;13.90;99.90;;;;;;5072059;28;20223;-58
2021/06/02 01:21:54;;;;;;;8.13;4.20;;;13.80;99.90;;;;;;5071590;28;20686;-57
2021/06/02 01:24:21;;;;;;;7.33;4.20;;;13.80;99.90;;;;;;5071930;28;20669;-55
2021/06/02 01:26:53;;;;;;;5.93;4.40;;;13.90;99.90;;;;;;5071746;28;20234;-55
2021/06/02 01:29:19;;;;;;;6.37;4.17;;;13.90;99.90;;;;;;5072147;28;20584;-56
2021/06/02 01:32:20;;;;;;;6.73;4.10;;;13.90;99.90;;;;;;5071888;28;20202;-56
2021/06/02 01:35:34;;;;;;;7.70;5.10;;;13.90;99.90;;;;;;5071734;28;20552;-57
2021/06/02 01:38:39;;;;;;;5.13;4.07;;;13.90;99.90;;;;;;5064538;28;20740;-56
2021/06/02 01:41:26;;;;;;;5.33;4.37;;;13.80;99.90;;;;;;5042717;28;20212;-57
2021/06/02 01:44:25;;;;;;;6.80;4.27;;;13.70;99.90;;;;;;5071967;28;20202;-57
2021/06/02 01:47:02;;;;;;;7.93;4.17;;;13.80;99.90;;;;;;5071786;28;20226;-56
2021/06/02 01:49:53;;;;;;;6.40;4.00;;;13.80;99.90;;;;;;5071649;28;20206;-54
2021/06/02 01:52:50;;;;;;;5.77;4.03;;;13.80;99.90;;;;;;5062103;28;20225;-56
2021/06/02 01:55:53;;;;;;;6.63;3.93;;;13.80;99.90;;;;;;5071648;28;20230;-57
2021/06/02 01:58:49;;;;;;;6.03;4.30;;;13.80;99.90;;;;;;5071970;28;20206;-58
2021/06/02 02:01:48;;;;;;;7.33;4.50;;;13.80;99.90;;;;;;5071458;28;20580;-57
2021/06/02 02:04:37;;;;;;;5.70;4.27;;;13.70;99.90;;;;;;5071469;28;20216;-57
2021/06/02 02:07:25;;;;;;;7.27;4.50;;;13.70;99.90;;;;;;5071564;28;20228;-58
2021/06/02 02:10:08;;;;;;;6.00;4.63;;;13.60;99.90;;;;;;5071385;28;20720;-56
2021/06/02 02:12:54;;;;;;;6.50;4.57;;;13.60;99.90;;;;;;5071359;28;20275;-58
2021/06/02 02:15:26;;;;;;;10.07;4.30;;;13.60;99.90;;;;;;5071456;28;20220;-57
2021/06/02 02:18:22;;;;;;;6.50;4.20;;;13.60;99.90;;;;;;5071493;28;20383;-57
2021/06/02 02:20:58;;;;;;;7.00;4.20;;;13.60;99.90;;;;;;5070926;28;20209;-55
2021/06/02 02:23:30;;;;;;;5.73;4.50;;;13.70;99.90;;;;;;5071234;28;20665;-54
2021/06/02 02:26:09;;;;;;;6.80;4.27;;;13.60;99.90;;;;;;5071445;28;20227;-55
2021/06/02 02:28:49;;;;;;;5.87;4.37;;;13.70;99.90;;;;;;5074970;28;20208;-58
2021/06/02 02:31:35;;;;;;;9.67;4.33;;;13.60;99.90;;;;;;5075784;28;20205;-57
2021/06/02 02:34:06;;;;;;;7.30;4.57;;;13.60;99.90;;;;;;5072677;28;20224;-56
2021/06/02 02:36:40;;;;;;;5.43;4.70;;;13.60;99.90;;;;;;5082294;28;20225;-58
2021/06/02 02:39:16;;;;;;;6.57;4.57;;;13.50;99.90;;;;;;5081512;28;20204;-58
2021/06/02 02:41:51;;;;;;;6.50;4.33;;;13.40;99.90;;;;;;5072675;28;20212;-56
2021/06/02 02:44:41;;;;;;;7.73;4.30;;;13.30;99.90;;;;;;5071484;28;20208;-56
2021/06/02 02:47:14;;;;;;;7.50;5.10;;;13.10;99.90;;;;;;5071268;28;20228;-56
2021/06/02 02:49:54;;;;;;;7.37;5.40;;;13.00;99.90;;;;;;5071187;28;20217;-58
2021/06/02 02:52:31;;;;;;;9.87;5.80;;;13.10;99.90;;;;;;5074954;28;20228;-56
2021/06/02 02:55:07;;;;;;;9.53;5.43;;;13.00;99.90;;;;;;5074257;28;20273;-57
2021/06/02 02:57:43;;;;;;;8.90;5.60;;;12.90;99.90;;;;;;5074606;28;20300;-57
2021/06/02 03:00:11;;;;;;;9.93;6.20;;;12.90;99.90;;;;;;5074123;28;20208;-58
2021/06/02 03:02:46;;;;;;;7.97;5.63;;;12.80;99.90;;;;;;5074326;28;20577;-55
2021/06/02 03:05:15;;;;;;;8.90;5.77;;;12.60;99.90;;;;;;5074437;28;20319;-54
2021/06/02 03:07:47;;;;;;;12.03;6.00;;;12.70;99.90;;;;;;5074508;28;20215;-57
2021/06/02 03:10:16;;;;;;;9.10;5.60;;;12.70;99.90;;;;;;5074193;28;20711;-58
2021/06/02 03:12:57;;;;;;;9.50;5.63;;;12.60;99.90;;;;;;5074257;28;20228;-57
2021/06/02 03:15:43;;;;;;;9.00;5.70;;;12.60;99.90;;;;;;5074393;28;20274;-56
2021/06/02 03:18:33;;;;;;;9.93;6.00;;;12.50;99.90;;;;;;5074660;28;20204;-56
2021/06/02 03:21:12;;;;;;;8.47;5.20;;;12.60;99.90;;;;;;5074308;28;20308;-57
2021/06/02 03:24:08;;;;;;;8.93;5.30;;;12.60;99.90;;;;;;5074582;28;20284;-55
2021/06/02 03:26:38;;;;;;;8.00;5.23;;;12.60;99.90;;;;;;5073194;28;20271;-58
2021/06/02 03:29:17;;;;;;;7.83;5.37;;;12.70;99.90;;;;;;5074879;28;20208;-57
2021/06/02 03:31:59;;;;;;;6.77;5.00;;;12.70;99.90;;;;;;5074230;28;20222;-58
2021/06/02 03:34:28;;;;;;;7.03;5.30;;;12.80;99.90;;;;;;5074096;28;20204;-56
2021/06/02 03:37:15;;;;;;;8.07;5.20;;;12.80;99.90;;;;;;5073732;28;20228;-58
2021/06/02 03:39:54;;;;;;;7.37;5.23;;;12.80;99.90;;;;;;5073820;28;20209;-55
2021/06/02 03:42:31;;;;;;;8.27;5.37;;;12.80;99.90;;;;;;5074023;28;20208;-53
2021/06/02 03:45:09;;;;;;;7.57;5.17;;;12.90;99.90;;;;;;5073935;28;20215;-57
2021/06/02 03:47:45;;;;;;;6.13;4.93;;;12.90;99.90;;;;;;5074272;28;20216;-58
2021/06/02 03:50:18;;;;;;;7.00;5.20;;;12.90;99.90;;;;;;5073559;28;20239;-56
2021/06/02 03:53:13;;;;;;;7.77;5.33;;;12.90;99.90;;;;;;5073354;28;20232;-56
2021/06/02 03:55:44;;;;;;;8.80;5.60;;;13.00;99.90;;;;;;5073354;28;20737;-56
2021/06/02 03:58:23;;;;;;;8.63;5.43;;;13.00;99.90;;;;;;5073492;28;20223;-58
2021/06/02 04:00:54;;;;;;;9.87;5.63;;;13.10;99.90;;;;;;5073062;28;20213;-53
2021/06/02 04:03:22;;;;;;;8.97;5.60;;;13.10;99.90;;;;;;5073506;28;20208;-58
2021/06/02 04:05:58;;;;;;;10.80;6.00;;;13.10;99.90;;;;;;5073397;28;20229;-54
2021/06/02 04:08:38;;;;;;;12.37;5.37;;;13.10;99.90;;;;;;5073251;28;20209;-58
2021/06/02 04:11:13;;;;;;;8.40;5.50;;;13.10;99.90;;;;;;5072979;28;20250;-55
2021/06/02 04:13:52;;;;;;;9.67;5.10;;;13.10;99.90;;;;;;5073367;28;20224;-55
2021/06/02 04:16:22;;;;;;;7.60;5.40;;;13.10;99.90;;;;;;5073320;28;20236;-58
2021/06/02 04:18:51;;;;;;;9.17;5.90;;;13.10;99.90;;;;;;5073184;28;20763;-53
2021/06/02 04:21:20;;;;;;;10.87;5.93;;;13.10;99.90;;;;;;5072761;28;20688;-57
2021/06/02 04:23:48;;;;;;;10.73;5.60;;;13.10;99.90;;;;;;5072729;28;20201;-56
2021/06/02 04:26:15;;;;;;;9.43;6.27;;;13.10;99.90;;;;;;5073154;28;20225;-54
2021/06/02 04:28:42;;;;;;;12.50;7.17;;;13.10;99.90;;;;;;5073199;28;20346;-58
2021/06/02 04:31:09;;;;;;;10.30;7.50;;;13.00;99.90;;;;;;5072593;28;20212;-57
2021/06/02 04:33:37;;;;;;;15.77;8.17;;;13.10;99.90;;;;;;5073054;28;20216;-57
2021/06/02 04:36:04;;;;;;;13.43;7.97;;;13.20;99.90;;;;;;5072489;28;20232;-57
2021/06/02 04:38:33;;;;;;;16.07;7.67;;;13.20;99.90;;;;;;5072590;28;20229;-57
2021/06/02 04:41:01;;;;;;;13.10;7.10;;;13.30;99.90;;;;;;5072439;28;20696;-55
2021/06/02 04:43:30;;;;;;;12.10;7.47;;;13.30;99.90;;;;;;5072707;28;20205;-58
2021/06/02 04:45:57;;;;;;;11.83;6.57;;;13.40;99.90;;;;;;5072484;28;20228;-55
2021/06/02 04:48:24;;;;;;;14.10;7.50;;;13.50;99.90;;;;;;5072535;28;20224;-55
2021/06/02 04:50:59;;;;;;;13.30;7.67;;;13.60;99.90;;;;;;5072144;28;20209;-57
2021/06/02 04:54:15;;;;;;;11.57;7.37;;;13.60;99.90;;;;;;5072326;28;20721;-56
2021/06/02 04:57:15;;;;;;;13.47;7.00;;;13.70;99.90;;;;;;5072450;28;20278;-54
2021/06/02 05:00:08;;;;;;;19.03;13.07;;;13.80;99.90;;;;;;5072570;28;20228;-56
2021/06/02 05:03:07;;;;;;;11.57;6.60;;;14.00;99.90;;;;;;5072349;28;20224;-58
2021/06/02 05:06:09;;;;;;;12.07;6.23;;;14.10;99.90;;;;;;5040069;28;20325;-57
2021/06/02 05:09:02;;;;;;;12.23;5.47;;;14.20;99.90;;;;;;5072301;28;20230;-58
2021/06/02 05:12:06;;;;;;;9.67;5.40;;;14.30;99.90;;;;;;5072084;28;20297;-57
2021/06/02 05:15:21;;;;;;;11.03;5.50;;;14.40;99.90;;;;;;5071809;28;20204;-56
2021/06/02 05:18:08;;;;;;;9.27;5.40;;;14.60;99.90;;;;;;5072059;28;20210;-58
2021/06/02 05:24:30;;;;;;;6.77;4.50;;;14.80;99.90;;;;;;5072192;28;20616;-56
2021/06/02 05:27:33;;;;;;;8.30;4.40;;;14.90;99.90;;;;;;5072141;28;20227;-57
2021/06/02 05:30:38;;;;;;;9.20;5.00;;;15.10;99.90;;;;;;5068720;28;20212;-57
2021/06/02 05:33:38;;;;;;;6.77;4.53;;;15.20;99.90;;;;;;5073013;28;20230;-58
2021/06/02 05:36:43;;;;;;;7.37;4.00;;;15.30;99.90;;;;;;5071843;28;20226;-58
2021/06/02 05:39:23;;;;;;;6.57;4.40;;;15.50;99.90;;;;;;5071981;28;20203;-58
2021/06/02 05:41:55;;;;;;;6.67;4.10;;;15.60;99.90;;;;;;5071879;28;20212;-59
2021/06/02 05:45:11;;;;;;;5.57;4.33;;;15.80;99.90;;;;;;5071779;28;20208;-58
2021/06/02 05:48:27;;;;;;;9.27;4.43;;;15.90;99.90;;;;;;5072196;28;20261;-59
2021/06/02 05:51:33;;;;;;;5.53;3.93;;;16.00;99.90;;;;;;5067082;28;20583;-58
2021/06/02 05:54:35;;;;;;;9.47;4.03;;;16.20;99.90;;;;;;5072353;28;20229;-58
2021/06/02 05:57:32;;;;;;;8.90;4.50;;;16.40;99.90;;;;;;5071828;28;20225;-58
2021/06/02 06:00:19;;;;;;;5.40;4.03;;;16.60;99.90;;;;;;5073029;28;20593;-58
2021/06/02 06:03:12;;;;;;;8.77;4.30;;;16.80;99.90;;;;;;5071977;28;20208;-55
2021/06/02 06:06:02;;;;;;;6.77;3.87;;;17.10;99.90;;;;;;5071537;28;20640;-55
2021/06/02 06:09:04;;;;;;;5.70;3.60;;;17.30;99.90;;;;;;5071713;28;20205;-56
2021/06/02 06:12:08;;;;;;;4.73;3.77;;;17.50;99.90;;;;;;5071565;28;20204;-58
2021/06/02 06:15:02;;;;;;;5.70;4.17;;;17.60;99.90;;;;;;5071266;28;20212;-57
2021/06/02 06:18:09;;;;;;;7.37;3.73;;;17.80;99.90;;;;;;5037515;28;20296;-55
2021/06/02 06:21:10;;;;;;;9.70;4.27;;;18.00;99.90;;;;;;5023996;28;20211;-56
2021/06/02 06:23:49;;;;;;;8.03;4.40;;;18.20;99.90;;;;;;5071418;28;20259;-56
2021/06/02 06:26:22;;;;;;;10.37;4.30;;;18.30;99.90;;;;;;5075200;28;20229;-57
2021/06/02 06:28:57;;;;;;;8.00;4.10;;;18.50;99.90;;;;;;5076212;28;20212;-54
2021/06/02 06:31:27;;;;;;;7.70;4.30;;;18.60;99.90;;;;;;5075360;28;20290;-57
2021/06/02 06:33:57;;;;;;;5.20;4.03;;;18.80;99.90;;;;;;5084258;28;20792;-59
2021/06/02 06:36:26;;;;;;;7.70;3.83;;;18.90;99.90;;;;;;5083626;28;20290;-59
2021/06/02 06:39:02;;;;;;;7.37;4.40;;;19.10;99.90;;;;;;5076195;28;20204;-56
2021/06/02 06:41:33;;;;;;;9.20;4.53;;;19.20;99.90;;;;;;5075171;28;20204;-59
2021/06/02 06:44:01;;;;;;;5.23;4.07;;;19.40;99.90;;;;;;5075192;28;20590;-58
2021/06/02 06:46:29;;;;;;;6.17;3.70;;;19.50;99.90;;;;;;5076965;28;20581;-59
2021/06/02 06:48:59;;;;;;;5.90;3.70;;;19.70;99.90;;;;;;5075597;28;20201;-56
2021/06/02 06:51:29;;;;;;;4.73;3.73;;;19.80;99.90;;;;;;5074831;28;20309;-59
2021/06/02 06:53:56;;;;;;;5.30;3.83;;;20.00;99.90;;;;;;5074650;28;20224;-59
2021/06/02 06:56:23;;;;;;;6.17;3.93;;;20.10;99.90;;;;;;5074763;28;20612;-58
2021/06/02 06:58:51;;;;;;;7.30;3.60;;;20.30;99.90;;;;;;5074809;28;20209;-58
2021/06/02 07:01:18;;;;;;;7.67;3.87;;;20.50;99.90;;;;;;5074746;28;20208;-58
2021/06/02 07:03:45;;;;;;;8.90;4.10;;;20.60;99.90;;;;;;5074721;28;20201;-56
2021/06/02 07:06:14;;;;;;;7.07;3.97;;;20.70;99.90;;;;;;5074281;28;20224;-58
2021/06/02 07:08:43;;;;;;;8.00;3.77;;;20.70;99.90;;;;;;5074751;28;20278;-59
2021/06/02 07:11:09;;;;;;;8.83;3.93;;;20.70;99.90;;;;;;5071426;28;20247;-58
2021/06/02 07:13:36;;;;;;;8.53;3.80;;;20.80;99.90;;;;;;5073886;28;20221;-57
2021/06/02 07:16:04;;;;;;;6.77;3.60;;;20.90;99.90;;;;;;5074791;28;20603;-56
2021/06/02 07:18:31;;;;;;;7.70;3.63;;;20.90;99.90;;;;;;5074469;28;20235;-56
2021/06/02 07:21:00;;;;;;;5.40;4.10;;;21.10;99.90;;;;;;5074225;28;20262;-58
2021/06/02 07:23:28;;;;;;;8.47;4.07;;;21.20;99.90;;;;;;5074550;28;20572;-55
2021/06/02 07:25:54;;;;;;;6.40;3.50;;;21.40;99.90;;;;;;5074477;28;20232;-56
2021/06/02 07:28:30;;;;;;;7.20;3.20;;;21.60;99.90;;;;;;5074571;28;20330;-57
2021/06/02 07:30:56;;;;;;;6.73;3.13;;;21.90;99.90;;;;;;5074350;28;20292;-57
2021/06/02 07:33:22;;;;;;;6.40;3.40;;;22.10;99.90;;;;;;5070412;28;20224;-58
2021/06/02 07:35:49;;;;;;;4.83;3.30;;;22.10;99.90;;;;;;5073716;28;20221;-54
2021/06/02 07:38:15;;;;;;;5.20;3.30;;;22.10;99.90;;;;;;5074220;28;20201;-59
2021/06/02 07:40:43;;;;;;;5.83;3.10;;;22.10;99.90;;;;;;5073567;28;20692;-59
2021/06/02 07:43:09;;;;;;;4.50;2.93;;;22.20;99.90;;;;;;5073436;28;20207;-60
2021/06/02 07:45:36;;;;;;;7.97;3.30;;;22.40;99.90;;;;;;5073452;28;20225;-60
2021/06/02 07:48:02;;;;;;;8.87;3.20;;;22.50;99.90;;;;;;5074287;28;20254;-59
2021/06/02 07:50:28;;;;;;;5.27;3.27;;;22.70;99.90;;;;;;5075061;28;20246;-55
2021/06/02 07:52:54;;;;;;;8.13;3.37;;;22.80;99.90;;;;;;5073100;28;20225;-58
2021/06/02 07:55:20;;;;;;;6.43;3.20;;;22.90;99.90;;;;;;5073219;28;20233;-57
2021/06/02 07:57:48;;;;;;;7.77;3.40;;;22.90;99.90;;;;;;5073206;28;20217;-59
2021/06/02 08:00:15;;;;;;;5.27;3.00;;;23.10;99.90;;;;;;5073024;28;20201;-60
2021/06/02 08:02:42;;;;;;;6.87;3.10;;;22.90;99.90;;;;;;5072766;28;20201;-58
2021/06/02 08:05:10;;;;;;;7.43;3.77;;;23.20;99.90;;;;;;5073195;28;20258;-57
2021/06/02 08:07:36;;;;;;;5.33;3.40;;;23.40;99.90;;;;;;5073578;28;20227;-56
2021/06/02 08:10:03;;;;;;;5.70;3.40;;;23.50;99.90;;;;;;5073239;28;20254;-57
2021/06/02 08:12:30;;;;;;;4.30;3.00;;;23.70;99.90;;;;;;5073403;28;20204;-57
2021/06/02 08:14:57;;;;;;;6.93;3.17;;;23.70;99.90;;;;;;5073176;28;20208;-59
2021/06/02 08:17:23;;;;;;;5.50;3.23;;;23.90;99.90;;;;;;5073341;28;20209;-59
2021/06/02 08:19:49;;;;;;;4.90;3.13;;;24.10;99.90;;;;;;5073241;28;20212;-59
2021/06/02 08:22:15;;;;;;;3.53;2.80;;;24.30;99.90;;;;;;5073017;28;20204;-56
2021/06/02 08:24:42;;;;;;;6.07;3.17;;;24.30;99.90;;;;;;5073178;28;20201;-58
2021/06/02 08:27:12;;;;;;;5.03;3.07;;;24.40;99.90;;;;;;5069210;28;20681;-55
2021/06/02 08:29:38;;;;;;;6.63;2.93;;;24.60;99.90;;;;;;5072494;28;20205;-60
2021/06/02 08:32:07;;;;;;;3.73;3.00;;;24.70;99.90;;;;;;5072483;28;20205;-58
2021/06/02 08:34:33;;;;;;;6.07;2.97;;;24.60;99.90;;;;;;5073208;28;20229;-58
2021/06/02 08:36:59;;;;;;;3.27;2.80;;;24.30;99.90;;;;;;5073197;28;20232;-58
2021/06/02 08:39:26;;;;;;;6.03;3.00;;;24.30;99.90;;;;;;5072934;28;20205;-52
2021/06/02 08:41:52;;;;;;;6.00;3.07;;;24.10;99.90;;;;;;5072293;28;20209;-51
2021/06/02 08:44:20;;;;;;;5.80;2.83;;;24.30;99.90;;;;;;5072177;28;20258;-55
2021/06/02 08:46:48;;;;;;;6.90;3.07;;;24.50;99.90;;;;;;5072077;28;20221;-54
2021/06/02 08:49:16;;;;;;;4.50;2.77;;;24.60;99.90;;;;;;5071670;28;20619;-52
2021/06/02 08:51:43;;;;;;;3.70;2.77;;;24.80;99.90;;;;;;5071985;28;20201;-60
2021/06/02 08:54:09;;;;;;;3.37;2.80;;;24.50;99.90;;;;;;5072111;28;20274;-58
2021/06/02 08:56:40;;;;;;;4.13;2.97;;;24.30;99.90;;;;;;5071836;28;20228;-58
2021/06/02 08:59:06;;;;;;;4.67;2.73;;;24.50;99.90;;;;;;5072377;28;20205;-61
2021/06/02 09:01:33;;;;;;;4.80;2.60;;;24.70;99.90;;;;;;5072198;28;20431;-53
2021/06/02 09:04:03;;;;;;;7.23;2.57;;;24.80;99.90;;;;;;5072445;28;20205;-52
2021/06/02 09:06:32;;;;;;;3.73;2.40;;;25.00;99.90;;;;;;5072313;28;20231;-54
2021/06/02 09:09:01;;;;;;;4.43;2.93;;;25.00;99.90;;;;;;5072306;28;20209;-53
2021/06/02 09:11:28;;;;;;;4.10;2.80;;;24.60;99.90;;;;;;5071952;28;20572;-53
2021/06/02 09:13:54;;;;;;;4.67;2.93;;;24.90;99.90;;;;;;5072354;28;20231;-55
2021/06/02 09:16:23;;;;;;;3.50;2.63;;;24.80;99.90;;;;;;5072296;28;20225;-55
2021/06/02 09:18:57;;;;;;;2.80;2.50;;;24.60;99.90;;;;;;5072257;28;20209;-57
2021/06/02 09:21:23;;;;;;;6.53;2.77;;;24.50;99.90;;;;;;5072008;28;20205;-56
2021/06/02 09:23:51;;;;;;;5.70;2.70;;;24.70;99.90;;;;;;5072207;28;20627;-53
2021/06/02 09:26:20;;;;;;;3.20;2.87;;;25.00;99.90;;;;;;5072247;28;20221;-56
2021/06/02 09:28:56;;;;;;;5.13;2.87;;;25.10;99.90;;;;;;5072291;28;20209;-55
2021/06/02 09:31:30;;;;;;;6.70;2.70;;;25.20;99.90;;;;;;5071895;28;20208;-54
2021/06/02 09:33:57;;;;;;;3.53;2.50;;;25.20;99.90;;;;;;5072084;28;20221;-57
2021/06/02 09:36:29;;;;;;;5.97;2.97;;;25.20;99.90;;;;;;5071957;28;20228;-56
2021/06/02 09:38:59;;;;;;;5.07;2.60;;;25.30;99.90;;;;;;5072048;28;20205;-50
2021/06/02 09:41:28;;;;;;;6.27;2.97;;;25.50;99.90;;;;;;5072193;28;20677;-56
2021/06/02 09:43:56;;;;;;;10.00;3.10;;;25.70;99.90;;;;;;5071714;28;20693;-54
2021/06/02 09:46:22;;;;;;;3.80;2.63;;;25.70;99.90;;;;;;5071785;28;20224;-57
2021/06/02 09:48:59;;;;;;;5.13;2.77;;;25.70;99.90;;;;;;5071593;28;20201;-55
2021/06/02 09:51:36;;;;;;;3.70;2.60;;;25.70;99.90;;;;;;5071895;28;20335;-55
2021/06/02 09:54:06;;;;;;;4.77;2.60;;;25.80;99.90;;;;;;5071709;28;20228;-53
2021/06/02 09:56:40;;;;;;;5.33;2.83;;;25.80;99.90;;;;;;5071999;28;20225;-54
2021/06/02 09:59:08;;;;;;;3.77;3.17;;;25.50;99.90;;;;;;5072395;28;20208;-52
2021/06/02 10:01:58;;;;;;;3.40;2.80;;;25.20;99.90;;;;;;5075949;28;20205;-54
2021/06/02 10:04:30;;;;;;;4.23;2.70;;;25.00;99.90;;;;;;5075858;28;20291;-52
2021/06/02 10:06:56;;;;;;;3.87;2.57;;;25.20;99.90;;;;;;5075700;28;20224;-49
2021/06/02 10:09:26;;;;;;;4.53;2.30;;;25.50;99.90;;;;;;5075617;28;20587;-56
2021/06/02 10:12:04;;;;;;;2.90;2.20;;;25.40;99.90;;;;;;5075415;28;20212;-56
2021/06/02 10:14:30;;;;;;;3.47;2.70;;;25.70;99.90;;;;;;5075585;28;20224;-56
2021/06/02 10:16:57;;;;;;;4.90;2.50;;;25.70;99.90;;;;;;5075616;28;20282;-54
2021/06/02 10:19:41;;;;;;;5.43;2.33;;;25.90;99.90;;;;;;5075672;28;20224;-55
2021/06/02 10:22:25;;;;;;;3.53;2.20;;;25.90;99.90;;;;;;5075244;28;20640;-58
2021/06/02 10:24:55;;;;;;;4.57;2.37;;;25.90;99.90;;;;;;5076578;28;20201;-57
2021/06/02 10:27:21;;;;;;;3.00;2.30;;;25.80;99.90;;;;;;5075853;28;20205;-58
2021/06/02 10:29:49;;;;;;;5.47;2.30;;;26.00;99.90;;;;;;5075311;28;20255;-50
2021/06/02 10:32:16;;;;;;;4.13;2.33;;;26.00;99.90;;;;;;5075603;28;20581;-59
2021/06/02 10:34:42;;;;;;;3.83;2.20;;;26.00;99.90;;;;;;5075574;28;20696;-58
2021/06/02 10:37:12;;;;;;;4.73;1.93;;;26.00;99.90;;;;;;5075901;28;20250;-58
2021/06/02 10:39:40;;;;;;;3.13;2.00;;;26.00;99.90;;;;;;5075595;28;20201;-57
2021/06/02 10:42:14;;;;;;;2.43;2.00;;;26.10;99.90;;;;;;5074869;28;20255;-55
2021/06/02 10:44:46;;;;;;;3.23;2.20;;;26.10;99.90;;;;;;5074974;28;20240;-55
2021/06/02 10:47:12;;;;;;;4.37;2.20;;;26.20;99.90;;;;;;5074718;28;20225;-56
2021/06/02 10:49:40;;;;;;;1.93;1.70;;;26.30;99.90;;;;;;5075102;28;20212;-55
2021/06/02 10:52:07;;;;;;;2.90;2.40;;;26.30;99.90;;;;;;5074527;28;20205;-54
2021/06/02 10:54:36;;;;;;;3.10;1.97;;;26.40;99.90;;;;;;5074783;28;20491;-53
2021/06/02 10:57:13;;;;;;;3.10;1.83;;;26.50;99.90;;;;;;5074846;28;20236;-57
2021/06/02 10:59:41;;;;;;;3.07;2.03;;;26.60;99.90;;;;;;5074607;28;20575;-56
2021/06/02 11:02:09;;;;;;;3.23;1.80;;;26.70;99.90;;;;;;5074674;28;20205;-54
2021/06/02 11:04:36;;;;;;;2.20;1.77;;;26.80;99.90;;;;;;5074741;28;20197;-55
2021/06/02 11:07:17;;;;;;;3.00;1.93;;;26.70;99.90;;;;;;5074411;28;20228;-57
2021/06/02 11:10:00;;;;;;;3.67;2.40;;;26.70;99.90;;;;;;5074532;28;20308;-56
2021/06/02 11:13:08;;;;;;;4.10;2.20;;;26.60;99.90;;;;;;5073893;28;20215;-52
2021/06/02 11:15:45;;;;;;;3.80;2.00;;;26.50;99.90;;;;;;5069163;28;20225;-55
2021/06/02 11:18:20;;;;;;;3.17;2.00;;;26.60;99.90;;;;;;5074425;28;20200;-55
2021/06/02 11:20:48;;;;;;;2.60;1.90;;;26.80;99.90;;;;;;5074089;28;20204;-55
2021/06/02 11:23:16;;;;;;;3.10;1.83;;;26.70;99.90;;;;;;5074557;28;20201;-55
2021/06/02 11:25:42;;;;;;;3.40;1.90;;;26.70;99.90;;;;;;5074274;28;20228;-57
2021/06/02 11:28:43;;;;;;;2.23;1.83;;;26.70;99.90;;;;;;5074296;28;20208;-54
2021/06/02 11:31:23;;;;;;;3.87;2.30;;;26.90;99.90;;;;;;5073960;28;20232;-53
2021/06/02 11:33:49;;;;;;;2.03;1.87;;;27.10;99.90;;;;;;5074342;28;20739;-55
2021/06/02 11:36:16;;;;;;;3.23;2.00;;;27.00;99.90;;;;;;5073941;28;20294;-51
2021/06/02 11:38:43;;;;;;;5.50;2.20;;;27.00;99.90;;;;;;5074073;28;20631;-53
2021/06/02 11:41:10;;;;;;;5.97;2.37;;;27.00;99.90;;;;;;5073457;28;20257;-55
2021/06/02 11:43:38;;;;;;;6.00;2.23;;;26.90;99.90;;;;;;5074167;28;20205;-54
2021/06/02 11:46:05;;;;;;;6.47;2.40;;;27.00;99.90;;;;;;5074043;28;20221;-57
2021/06/02 11:48:39;;;;;;;4.07;2.67;;;27.10;99.90;;;;;;5074054;28;20205;-58
2021/06/02 11:51:11;;;;;;;4.63;2.43;;;27.20;99.90;;;;;;5073609;28;20236;-56
2021/06/02 11:53:44;;;;;;;3.63;2.40;;;27.10;99.90;;;;;;5073595;28;20274;-57
2021/06/02 11:56:11;;;;;;;2.93;2.40;;;27.10;99.90;;;;;;5073916;28;20225;-58
2021/06/02 11:58:39;;;;;;;4.13;2.30;;;27.00;99.90;;;;;;5073782;28;20209;-55
2021/06/02 12:01:05;;;;;;;5.90;3.40;;;27.00;99.90;;;;;;5073298;28;20211;-56
2021/06/02 12:03:31;;;;;;;2.87;2.40;;;27.20;99.90;;;;;;5073700;28;20592;-56
2021/06/02 12:05:58;;;;;;;6.20;2.40;;;27.40;99.90;;;;;;5073643;28;20229;-56
2021/06/02 12:08:24;;;;;;;3.37;2.30;;;27.40;99.90;;;;;;5073419;28;20286;-58
2021/06/02 12:10:52;;;;;;;4.23;2.30;;;27.30;99.90;;;;;;5073454;28;20216;-57
2021/06/02 12:13:20;;;;;;;3.93;2.17;;;27.30;99.90;;;;;;5073237;28;20641;-57
2021/06/02 12:15:49;;;;;;;3.57;1.90;;;27.10;99.90;;;;;;5073324;28;20236;-56
2021/06/02 12:18:30;;;;;;;4.03;1.97;;;27.20;99.90;;;;;;5073421;28;20204;-56
2021/06/02 12:21:11;;;;;;;2.33;1.80;;;27.50;99.90;;;;;;5073000;28;20204;-55
2021/06/02 12:23:50;;;;;;;2.10;1.90;;;27.50;99.90;;;;;;5073816;28;20210;-59
2021/06/02 12:26:18;;;;;;;3.43;1.90;;;27.20;99.90;;;;;;5073390;28;20731;-58
2021/06/02 12:28:45;;;;;;;2.73;2.00;;;27.10;99.90;;;;;;5073311;28;20669;-56
2021/06/02 12:31:35;;;;;;;1.80;1.70;;;27.10;99.90;;;;;;5072716;28;20213;-55
2021/06/02 12:34:03;;;;;;;1.97;1.57;;;27.30;99.90;;;;;;5072978;28;20577;-57
2021/06/02 12:36:31;;;;;;;4.93;2.30;;;27.40;99.90;;;;;;5073027;28;20225;-58
2021/06/02 12:39:00;;;;;;;2.43;2.00;;;27.40;99.90;;;;;;5072886;28;20235;-58
2021/06/02 12:41:27;;;;;;;3.80;1.97;;;27.40;99.90;;;;;;5072530;28;20300;-59
2021/06/02 12:43:53;;;;;;;2.27;1.87;;;27.10;99.90;;;;;;5073051;28;20262;-56
2021/06/02 12:46:19;;;;;;;3.87;1.87;;;27.20;99.90;;;;;;5073512;28;20228;-60
2021/06/02 12:48:47;;;;;;;2.07;1.80;;;27.40;99.90;;;;;;5072932;28;20589;-59
2021/06/02 12:51:17;;;;;;;1.77;1.67;;;27.40;99.90;;;;;;5072108;28;20350;-58
2021/06/02 12:53:46;;;;;;;3.23;2.20;;;27.40;99.90;;;;;;5072380;28;20231;-57
2021/06/02 12:56:13;;;;;;;2.53;1.90;;;27.30;99.90;;;;;;5072367;28;20225;-58
2021/06/02 12:58:39;;;;;;;2.27;1.87;;;27.40;99.90;;;;;;5072565;28;20209;-59
2021/06/02 13:01:08;;;;;;;3.63;2.30;;;27.20;99.90;;;;;;5072184;28;20209;-59
2021/06/02 13:03:36;;;;;;;2.70;2.10;;;27.20;99.90;;;;;;5072597;28;20634;-57
2021/06/02 13:06:05;;;;;;;2.23;1.97;;;27.30;99.90;;;;;;5072424;28;20597;-58
2021/06/02 13:08:38;;;;;;;4.00;2.03;;;27.50;99.90;;;;;;5072328;28;20681;-58
2021/06/02 13:11:05;;;;;;;2.10;1.73;;;27.40;99.90;;;;;;5072054;28;20303;-57
2021/06/02 13:13:31;;;;;;;3.90;1.90;;;27.50;99.90;;;;;;5072132;28;20717;-59
2021/06/02 13:15:57;;;;;;;2.07;1.80;;;27.50;99.90;;;;;;5073210;28;20225;-60
2021/06/02 13:18:25;;;;;;;2.23;1.97;;;27.60;99.90;;;;;;5073247;28;20665;-58
2021/06/02 13:20:51;;;;;;;3.33;1.90;;;27.70;99.90;;;;;;5072163;28;20239;-59
2021/06/02 13:23:21;;;;;;;3.60;1.83;;;27.70;99.90;;;;;;5072550;28;20208;-58
2021/06/02 13:25:59;;;;;;;3.07;1.97;;;27.70;99.90;;;;;;5072671;28;20728;-59